WetterOnline ( https://www.wetteronline.at )

Wetter aktuell Artern

Aktuelles Wetter: Artern (166m)

6-stündlich | Neueste Meldungen
Ortszeit Temperatur Wetter
Mo, 24.02. 7:00 3.6° C wolkig
Mo, 24.02. 1:00 3.7° C fast wolkenlos
So, 23.02. 19:00 10.5° C wolkig
So, 23.02. 13:00 10.1° C leichter Regen
So, 23.02. 7:00 7.5° C Sprühregen
So, 23.02. 1:00 8.2° C Regen
Sa, 22.02. 19:00 9.5° C bedeckt
Sa, 22.02. 13:00 10.4° C leicht bewölkt
Ortszeit Temperatur Wetter
Mo, 24.02. 8:30 3.8° C bedeckt
Mo, 24.02. 8:20 3.8° C bedeckt
Mo, 24.02. 8:10 4.0° C bedeckt
Mo, 24.02. 8:00 3.8° C bedeckt
Mo, 24.02. 7:50 3.8° C bedeckt
Mo, 24.02. 7:40 3.8° C bedeckt
Mo, 24.02. 7:30 3.7° C bedeckt
Mo, 24.02. 7:00 3.6° C wolkig
Mo, 24.02. 6:30 4.0° C bewölkt
Mo, 24.02. 6:00 3.4° C wolkig
Mo, 24.02. 5:30 3.2° C wolkenlos
Ortszeit Relative Feuchte Sichtweite
Mo, 24.02. 7:00 72% 50 km
Mo, 24.02. 1:00 81% >70 km
So, 23.02. 19:00 74% 65 km
So, 23.02. 13:00 90% 24 km
So, 23.02. 7:00 88% 65 km
So, 23.02. 1:00 84% >70 km
Sa, 22.02. 19:00 62% >70 km
Sa, 22.02. 13:00 48% 60 km
Ortszeit Relative Feuchte Sichtweite
Mo, 24.02. 8:30 75% 50 km
Mo, 24.02. 8:20 75% -
Mo, 24.02. 8:10 72% -
Mo, 24.02. 8:00 75% 55 km
Mo, 24.02. 7:50 75% -
Mo, 24.02. 7:40 73% -
Mo, 24.02. 7:30 72% 50 km
Mo, 24.02. 7:00 72% 50 km
Mo, 24.02. 6:30 68% 55 km
Mo, 24.02. 6:00 72% 55 km
Mo, 24.02. 5:30 74% 50 km
Ortszeit Niederschlagsmenge Niederschlagsart
Mo, 24.02. 7:00 0.1 l/m2 in 12 Std. -
Mo, 24.02. 1:00 0.1 l/m2 in 6 Std. Regen
So, 23.02. 19:00 6 l/m2 in 12 Std. Regen
So, 23.02. 13:00 3 l/m2 in 6 Std. Regen
So, 23.02. 7:00 0.7 l/m2 in 12 Std. Regen
So, 23.02. 1:00 0.7 l/m2 in 6 Std. Regen
Sa, 22.02. 19:00 0.0 l/m2 in 12 Std. -
Sa, 22.02. 13:00 0.0 l/m2 in 6 Std. -
Ortszeit Niederschlagsmenge Niederschlagsart
Mo, 24.02. 8:30 0.0 l/m2 in 1 Std. -
Mo, 24.02. 8:20 keine Meldung -
Mo, 24.02. 8:10 keine Meldung -
Mo, 24.02. 8:00 0.0 l/m2 in 1 Std. -
Mo, 24.02. 7:50 keine Meldung -
Mo, 24.02. 7:40 keine Meldung -
Mo, 24.02. 7:30 0.0 l/m2 in 1 Std. -
Mo, 24.02. 7:00 0.0 l/m2 in 1 Std. -
Mo, 24.02. 6:30 0.0 l/m2 in 1 Std. -
Mo, 24.02. 6:00 0.0 l/m2 in 1 Std. -
Mo, 24.02. 5:30 0.0 l/m2 in 1 Std. -
Ortszeit Stärke Spitze Richtung
km/h Bft. km/h Grad Sektor
Mo, 24.02. 7:00 25 4 40 250° W
Mo, 24.02. 1:00 22 4 94 260° W
So, 23.02. 19:00 56 7 87 290° W
So, 23.02. 13:00 31 5 50 230° SW
So, 23.02. 7:00 13 3 57 220° SW
So, 23.02. 1:00 22 4 50 250° W
Sa, 22.02. 19:00 33 5 67 240° SW
Sa, 22.02. 13:00 37 5 69 230° SW
Ortszeit Stärke Spitze Richtung
km/h Bft. km/h Grad Sektor
Mo, 24.02. 8:30 20 4 33 250° W
Mo, 24.02. 8:20 20 4 - 250° W
Mo, 24.02. 8:10 25 4 - 260° W
Mo, 24.02. 8:00 22 4 32 250° W
Mo, 24.02. 7:50 22 4 - 250° W
Mo, 24.02. 7:40 17 3 - 240° SW
Mo, 24.02. 7:30 20 4 33 240° SW
Mo, 24.02. 7:00 25 4 36 250° W
Mo, 24.02. 6:30 22 4 29 240° SW
Mo, 24.02. 6:00 15 3 33 250° W
Mo, 24.02. 5:30 22 4 30 250° W
Ortszeit Untergrenze Bedeckung Gattung
total tief tief mittel hoch
Mo, 24.02. 7:00 960 m 7/8 1/8 - - -
Mo, 24.02. 1:00 1230 m 1/8 1/8 - - -
So, 23.02. 19:00 690 m 6/8 6/8 - - -
So, 23.02. 13:00 270 m 8/8 8/8 - - -
So, 23.02. 7:00 540 m 8/8 8/8 - - -
So, 23.02. 1:00 780 m 8/8 8/8 - - -
Sa, 22.02. 19:00 1440 m 8/8 8/8 - - -
Sa, 22.02. 13:00 4800 m 2/8 2/8 - - -
Ortszeit Bedeckungsgrad in Achtel und Wolkenuntergrenze
Mo, 24.02. 8:30 8(4200m)
Mo, 24.02. 8:20 8(4200m)
Mo, 24.02. 8:10 8(4200m)
Mo, 24.02. 8:00 8(4500m)
Mo, 24.02. 7:50 8(4500m)
Mo, 24.02. 7:40 8(4500m) 8(6000m)
Mo, 24.02. 7:30 7(4800m) 8(6000m)
Mo, 24.02. 7:00 1(960m) 7(5100m) 7(7200m)
Mo, 24.02. 6:30 7(1050m) 8(5400m)
Mo, 24.02. 6:00 5(5400m) 7(5400m)
Mo, 24.02. 5:30 keine Wolken
Ortszeit Luftdruck NN (hPa) Tendenz (hPa in 3 Std.)
Mo, 24.02. 7:00 1022 + 0,5
Mo, 24.02. 1:00 1020 + 4,5
So, 23.02. 19:00 1006 + 2,8
So, 23.02. 13:00 1006 - 7,2
So, 23.02. 7:00 1016 - 1,2
So, 23.02. 1:00 1018 - 0,3
Sa, 22.02. 19:00 1018 + 1,0
Sa, 22.02. 13:00 1016 - 4,0
Ortszeit Luftdruck NN (hPa) Tendenz (hPa in 3 Std.)
Mo, 24.02. 8:30 1023 + 0,6
Mo, 24.02. 8:20 1023 keine Meldung
Mo, 24.02. 8:10 1022 keine Meldung
Mo, 24.02. 8:00 1023 + 0,9
Mo, 24.02. 7:50 1023 keine Meldung
Mo, 24.02. 7:40 1023 keine Meldung
Mo, 24.02. 7:30 1023 + 0,7
Mo, 24.02. 7:00 1022 + 0,5
Mo, 24.02. 6:30 1022 + 0,8
Mo, 24.02. 6:00 1022 + 0,8
Mo, 24.02. 5:30 1022 + 0,8
Ortszeit Schneehöhe (cm)
Mo, 24.02. 7:00 0
Mo, 24.02. 1:00 0
So, 23.02. 19:00 0
So, 23.02. 13:00 0
So, 23.02. 7:00 0
So, 23.02. 1:00 0
Sa, 22.02. 19:00 0
Sa, 22.02. 13:00 0
Ortszeit Schneehöhe (cm)
Mo, 24.02. 8:30 0
Mo, 24.02. 8:20 0
Mo, 24.02. 8:10 0
Mo, 24.02. 8:00 0
Mo, 24.02. 7:50 0
Mo, 24.02. 7:40 0
Mo, 24.02. 7:30 0
Mo, 24.02. 7:00 0
Mo, 24.02. 6:30 0
Mo, 24.02. 6:00 0
Mo, 24.02. 5:30 0
Link zu dieser Seite / Seite empfehlen

Das Wetter in ...